Aviation Digital Data Service (ADDS)

Output produced by METARs form (1600 UTC 27 February 2017)
found at http://www.aviationweather.gov/adds/metars/
 
METAR text: KOLM 271554Z 20007KT 3SM BR SCT008 BKN020 OVC028 02/02 A2975 RMK AO2 RAB17E37 SLP078 P0000 T00170017
Conditions at: KOLM (OLYMPIA , WA, US) observed 1554 UTC 27 February 2017
Temperature: 1.7°C (35°F)
Dewpoint: 1.7°C (35°F) [RH = 100%]
Pressure (altimeter): 29.75 inches Hg (1007.5 mb)
[Sea-level pressure: 1007.8 mb]
Winds: from the SSW (200 degrees) at 8 MPH (7 knots; 3.6 m/s)
Visibility: 3 miles (5 km)
Ceiling: 2000 feet AGL
Clouds: scattered clouds at 800 feet AGL
broken clouds at 2000 feet AGL
overcast cloud deck at 2800 feet AGL
Weather: BR  (mist)